createdAt,value
2022-09-22T00:00:59.505Z,101359.25
2022-09-22T00:03:31.309Z,101350.97
2022-09-22T00:06:01.456Z,101368.19
2022-09-22T00:08:30.875Z,101367.38
2022-09-22T00:11:04.726Z,101360.97
2022-09-22T00:13:33.624Z,101372.41
2022-09-22T00:16:02.035Z,101367.00
2022-09-22T00:18:31.457Z,101369.88
2022-09-22T00:20:59.273Z,101369.03
2022-09-22T00:23:29.081Z,101371.75
2022-09-22T00:25:56.856Z,101363.28
2022-09-22T00:28:26.383Z,101352.63
2022-09-22T00:30:54.145Z,101359.75
2022-09-22T00:33:21.895Z,101361.78
2022-09-22T00:35:59.633Z,101363.28
2022-09-22T00:38:27.802Z,101361.59
2022-09-22T00:40:55.685Z,101362.31
2022-09-22T00:43:27.111Z,101358.59
2022-09-22T00:45:59.471Z,101354.38
2022-09-22T00:48:29.329Z,101358.25
2022-09-22T00:51:01.086Z,101353.53
2022-09-22T00:53:31.802Z,101356.56
2022-09-22T00:56:04.191Z,101358.09
2022-09-22T00:58:36.582Z,101353.53
2022-09-22T01:01:05.350Z,101348.13
2022-09-22T01:03:33.231Z,101336.50
2022-09-22T01:06:06.319Z,101350.16
2022-09-22T01:08:35.745Z,101356.56
2022-09-22T01:11:03.615Z,101350.66
2022-09-22T01:13:36.552Z,101340.53
2022-09-22T01:16:21.821Z,101334.28
2022-09-22T01:19:07.595Z,101341.19
2022-09-22T01:21:46.167Z,101342.88
2022-09-22T01:24:46.567Z,101339.88
2022-09-22T01:27:31.994Z,101335.63
2022-09-22T01:30:15.044Z,101330.22
2022-09-22T01:32:52.358Z,101332.25
2022-09-22T01:35:29.196Z,101337.50
2022-09-22T01:38:03.879Z,101338.00
2022-09-22T01:40:36.529Z,101328.56
2022-09-22T01:43:12.046Z,101339.19
2022-09-22T01:45:44.491Z,101340.19
2022-09-22T01:48:18.849Z,101332.41
2022-09-22T01:50:51.929Z,101333.09
2022-09-22T01:53:23.705Z,101338.47
2022-09-22T01:55:55.146Z,101331.38
2022-09-22T01:58:27.606Z,101332.56
2022-09-22T02:01:01.817Z,101328.34
2022-09-22T02:03:36.580Z,101336.59
2022-09-22T02:06:10.424Z,101336.75
2022-09-22T02:08:44.037Z,101320.75
2022-09-22T02:11:16.159Z,101330.00
2022-09-22T02:13:45.243Z,101325.97
2022-09-22T02:16:17.027Z,101326.31
2022-09-22T02:18:49.431Z,101317.88
2022-09-22T02:21:18.711Z,101319.06
2022-09-22T02:23:48.832Z,101329.56
2022-09-22T02:26:23.577Z,101323.13
2022-09-22T02:28:54.496Z,101321.97
2022-09-22T02:31:28.563Z,101304.75
2022-09-22T02:33:56.740Z,101320.59
2022-09-22T02:36:49.808Z,101321.63
2022-09-22T02:39:23.187Z,101315.69
2022-09-22T02:42:07.698Z,101312.50
2022-09-22T02:44:44.838Z,101312.97
2022-09-22T02:47:18.704Z,101321.91
2022-09-22T02:49:48.088Z,101307.94
2022-09-22T02:52:16.151Z,101300.69
2022-09-22T02:54:43.908Z,101314.69
2022-09-22T02:57:11.851Z,101308.63
2022-09-22T02:59:39.627Z,101304.75
2022-09-22T03:02:07.313Z,101300.53
2022-09-22T03:04:36.455Z,101301.69
2022-09-22T03:07:04.350Z,101300.50
2022-09-22T03:09:32.050Z,101300.16
2022-09-22T03:11:59.795Z,101306.56
2022-09-22T03:14:27.619Z,101302.53
2022-09-22T03:16:55.502Z,101305.69
2022-09-22T03:19:23.247Z,101301.81
2022-09-22T03:21:52.333Z,101299.44
2022-09-22T03:24:20.061Z,101291.88
2022-09-22T03:26:47.772Z,101285.97
2022-09-22T03:29:15.577Z,101286.66
2022-09-22T03:31:43.351Z,101294.19
2022-09-22T03:34:11.063Z,101289.31
2022-09-22T03:36:38.838Z,101292.69
2022-09-22T03:39:07.923Z,101291.16
2022-09-22T03:41:35.809Z,101290.34
2022-09-22T03:44:06.074Z,101288.00
2022-09-22T03:46:34.392Z,101295.44
2022-09-22T03:49:03.094Z,101285.50
2022-09-22T03:51:31.048Z,101287.19
2022-09-22T03:53:58.791Z,101286.66
2022-09-22T03:56:27.923Z,101287.81
2022-09-22T03:58:55.978Z,101295.03
2022-09-22T04:01:23.864Z,101291.50
2022-09-22T04:03:51.745Z,101292.31
2022-09-22T04:06:19.533Z,101287.03
2022-09-22T04:08:47.249Z,101289.34
2022-09-22T04:11:14.981Z,101286.97
2022-09-22T04:13:46.473Z,101291.03
2022-09-22T04:16:14.650Z,101290.47
2022-09-22T04:18:42.450Z,101284.09
2022-09-22T04:21:10.544Z,101285.28
2022-09-22T04:23:38.395Z,101282.09
2022-09-22T04:26:06.590Z,101271.13
2022-09-22T04:28:34.482Z,101281.97
2022-09-22T04:31:03.846Z,101287.34
2022-09-22T04:33:31.728Z,101277.31
2022-09-22T04:35:59.630Z,101278.50
2022-09-22T04:38:27.407Z,101283.81
2022-09-22T04:40:55.192Z,101279.28
2022-09-22T04:43:23.013Z,101280.00
2022-09-22T04:45:50.911Z,101277.31
2022-09-22T04:48:20.176Z,101277.34
2022-09-22T04:50:48.434Z,101283.09
2022-09-22T04:53:16.907Z,101284.59
2022-09-22T04:55:45.118Z,101261.78
2022-09-22T04:58:13.890Z,101273.47
2022-09-22T05:00:41.665Z,101275.50
2022-09-22T05:03:10.436Z,101272.59
2022-09-22T05:05:40.001Z,101281.16
2022-09-22T05:08:07.851Z,101274.84
2022-09-22T05:10:36.725Z,101284.53
2022-09-22T05:13:05.763Z,101281.91
2022-09-22T05:15:34.640Z,101288.50
2022-09-22T05:18:02.609Z,101282.25
2022-09-22T05:20:30.372Z,101291.66
2022-09-22T05:22:59.968Z,101293.63
2022-09-22T05:25:27.967Z,101291.97
2022-09-22T05:27:56.928Z,101300.22
2022-09-22T05:30:26.981Z,101300.47
2022-09-22T05:32:54.910Z,101298.13
2022-09-22T05:35:24.779Z,101292.56
2022-09-22T05:37:54.017Z,101307.47
2022-09-22T05:40:26.160Z,101298.41
2022-09-22T05:42:54.789Z,101305.19
2022-09-22T05:45:23.061Z,101316.47
2022-09-22T05:47:50.936Z,101310.59
2022-09-22T05:50:20.750Z,101296.44
2022-09-22T05:52:48.551Z,101312.34
2022-09-22T05:55:16.680Z,101308.66
2022-09-22T05:57:45.898Z,101307.13
2022-09-22T06:00:14.382Z,101305.81
2022-09-22T06:02:45.012Z,101305.63
2022-09-22T06:05:15.473Z,101304.44
2022-09-22T06:07:45.160Z,101310.38
2022-09-22T06:10:13.250Z,101307.00
2022-09-22T06:12:41.296Z,101297.38
2022-09-22T06:15:11.249Z,101296.19
2022-09-22T06:17:38.925Z,101307.66
2022-09-22T06:20:08.466Z,101308.16
2022-09-22T06:22:36.416Z,101310.00
2022-09-22T06:25:04.618Z,101311.69
2022-09-22T06:27:32.364Z,101295.81
2022-09-22T06:30:00.334Z,101305.22
2022-09-22T06:32:29.702Z,101296.81
2022-09-22T06:35:02.508Z,101298.75
2022-09-22T06:37:30.379Z,101298.47
2022-09-22T06:39:58.207Z,101302.69
2022-09-22T06:42:26.032Z,101301.94
2022-09-22T06:44:54.749Z,101297.69
2022-09-22T06:47:22.524Z,101306.63
2022-09-22T06:49:51.681Z,101306.97
2022-09-22T06:52:19.497Z,101301.22
2022-09-22T06:54:50.247Z,101295.44
2022-09-22T06:57:19.809Z,101300.16
2022-09-22T06:59:48.320Z,101300.31
2022-09-22T07:02:16.273Z,101310.69
2022-09-22T07:04:44.148Z,101303.13
2022-09-22T07:07:13.351Z,101299.56
2022-09-22T07:09:41.096Z,101288.06
2022-09-22T07:12:09.027Z,101296.72
2022-09-22T07:14:36.772Z,101294.66
2022-09-22T07:17:04.638Z,101295.72
2022-09-22T07:19:36.182Z,101301.53
2022-09-22T07:22:04.221Z,101293.53
2022-09-22T07:24:33.518Z,101280.06
2022-09-22T07:27:04.901Z,101297.09
2022-09-22T07:29:33.240Z,101286.13
2022-09-22T07:32:02.403Z,101288.75
2022-09-22T07:34:30.438Z,101285.84
2022-09-22T07:36:59.295Z,101280.41
2022-09-22T07:39:27.163Z,101280.63
2022-09-22T07:41:56.455Z,101270.63
2022-09-22T07:44:44.504Z,101279.63
2022-09-22T07:47:12.852Z,101280.53
2022-09-22T07:49:40.618Z,101274.78
2022-09-22T07:52:09.878Z,101275.09
2022-09-22T07:54:39.694Z,101274.31
2022-09-22T07:57:11.109Z,101278.78
2022-09-22T07:59:39.707Z,101274.78
2022-09-22T08:02:08.279Z,101274.53
2022-09-22T08:04:36.240Z,101268.97
2022-09-22T08:07:04.550Z,101277.44
2022-09-22T08:09:33.478Z,101268.44
2022-09-22T08:12:02.194Z,101262.06
2022-09-22T08:14:31.421Z,101279.28
2022-09-22T08:16:59.549Z,101267.16
2022-09-22T08:19:27.265Z,101273.88
2022-09-22T08:21:55.215Z,101262.25
2022-09-22T08:24:31.730Z,101266.22
2022-09-22T08:26:59.597Z,101272.09
2022-09-22T08:29:27.885Z,101269.97
2022-09-22T08:31:57.055Z,101268.31
2022-09-22T08:34:25.897Z,101265.72
2022-09-22T08:36:54.977Z,101269.78
2022-09-22T08:39:22.825Z,101266.44
2022-09-22T08:42:05.722Z,101264.06
2022-09-22T08:44:39.589Z,101273.28
2022-09-22T08:47:17.116Z,101271.44
2022-09-22T08:50:09.279Z,101263.72
2022-09-22T08:52:43.268Z,101263.06
2022-09-22T08:55:19.035Z,101272.72
2022-09-22T08:57:59.845Z,101263.94
2022-09-22T09:00:33.745Z,101264.97
2022-09-22T09:03:18.679Z,101255.97
2022-09-22T09:06:04.081Z,101263.31
2022-09-22T09:09:06.638Z,101258.72
2022-09-22T09:11:51.874Z,101258.91
2022-09-22T09:14:42.402Z,101263.72
2022-09-22T09:17:15.720Z,101244.59
2022-09-22T09:19:50.467Z,101258.00
2022-09-22T09:22:25.064Z,101249.56
2022-09-22T09:27:50.385Z,101247.69
2022-09-22T09:30:20.270Z,101251.88
2022-09-22T09:32:51.649Z,101251.00
2022-09-22T09:35:26.719Z,101242.28
2022-09-22T09:37:58.778Z,101248.78
2022-09-22T09:40:27.614Z,101243.53
2022-09-22T09:42:58.965Z,101235.53
2022-09-22T09:45:32.927Z,101235.56
2022-09-22T09:48:19.935Z,101236.09
2022-09-22T09:50:49.081Z,101232.34
2022-09-22T09:53:31.810Z,101240.66
2022-09-22T09:55:59.775Z,101227.59
2022-09-22T09:58:45.023Z,101215.78
2022-09-22T10:01:15.256Z,101232.44
2022-09-22T10:03:46.920Z,101221.69
2022-09-22T10:06:25.166Z,101220.75
2022-09-22T10:08:53.213Z,101224.38
2022-09-22T10:11:31.091Z,101225.56
2022-09-22T10:13:59.772Z,101217.53
2022-09-22T10:16:28.800Z,101213.44
2022-09-22T10:19:22.614Z,101202.56
2022-09-22T10:21:51.947Z,101210.63
2022-09-22T10:24:32.515Z,101210.78
2022-09-22T10:27:02.613Z,101205.34
2022-09-22T10:29:33.255Z,101207.50
2022-09-22T10:32:03.892Z,101199.72
2022-09-22T10:34:34.977Z,101194.88
2022-09-22T10:37:08.894Z,101193.19
2022-09-22T10:39:47.198Z,101187.31
2022-09-22T10:42:33.333Z,101188.25
2022-09-22T10:45:04.290Z,101193.91
2022-09-22T10:47:39.562Z,101186.13
2022-09-22T10:50:36.613Z,101179.91
2022-09-22T10:53:25.546Z,101175.88
2022-09-22T10:55:59.276Z,101182.91
2022-09-22T10:58:46.855Z,101174.31
2022-09-22T11:01:33.183Z,101178.13
2022-09-22T11:04:17.685Z,101172.91
2022-09-22T11:07:18.307Z,101152.72
2022-09-22T11:10:14.008Z,101159.34
2022-09-22T11:12:55.789Z,101153.53
2022-09-22T11:15:45.111Z,101155.66
2022-09-22T11:18:34.485Z,101149.47
2022-09-22T11:25:08.922Z,101133.16
2022-09-22T11:27:53.164Z,101112.63
2022-09-22T11:30:22.935Z,101123.44
2022-09-22T11:33:18.764Z,101125.41
2022-09-22T11:36:17.969Z,101112.63
2022-09-22T11:39:04.708Z,101113.72
2022-09-22T11:41:41.715Z,101115.03
2022-09-22T11:44:42.082Z,101103.09
2022-09-22T11:47:25.972Z,101102.47
2022-09-22T11:50:17.926Z,101110.03
2022-09-22T11:53:01.470Z,101098.50
2022-09-22T11:55:37.421Z,101089.00
2022-09-22T11:58:15.410Z,101097.28
2022-09-22T12:00:49.588Z,101101.13
2022-09-22T12:03:23.788Z,101081.38
2022-09-22T12:05:55.808Z,101082.59
2022-09-22T12:08:26.920Z,101065.25
2022-09-22T12:10:55.226Z,101081.03
2022-09-22T12:13:25.481Z,101052.03
2022-09-22T12:18:41.624Z,101058.34
2022-09-22T12:21:23.810Z,101065.69
2022-09-22T12:24:03.754Z,101057.75
2022-09-22T12:26:38.254Z,101066.41
2022-09-22T12:29:24.531Z,101049.31
2022-09-22T12:34:50.412Z,101045.78
2022-09-22T12:41:27.414Z,101048.19
2022-09-22T12:44:11.761Z,101050.03
2022-09-22T12:46:44.890Z,101023.84
2022-09-22T12:49:25.970Z,101040.53
2022-09-22T12:55:21.949Z,101038.03
2022-09-22T12:57:53.947Z,101020.44
2022-09-22T13:00:32.831Z,101033.59
2022-09-22T13:03:02.052Z,101015.53
2022-09-22T13:05:46.758Z,101032.81
2022-09-22T13:08:24.102Z,101027.31
2022-09-22T13:11:00.677Z,101032.63
2022-09-22T13:13:37.586Z,101024.56
2022-09-22T13:16:21.795Z,101018.63
2022-09-22T13:18:59.741Z,101022.41
2022-09-22T13:21:28.929Z,101027.69
2022-09-22T13:24:00.207Z,101024.75
2022-09-22T13:26:30.485Z,101007.47
2022-09-22T13:29:04.821Z,101018.88
2022-09-22T13:31:41.546Z,100986.75
2022-09-22T13:34:26.913Z,101011.78
2022-09-22T13:36:58.964Z,100987.06
2022-09-22T13:39:31.769Z,101010.38
2022-09-22T13:42:05.482Z,100984.66
2022-09-22T13:44:35.424Z,100996.16
2022-09-22T13:47:07.845Z,100974.69
2022-09-22T13:49:41.384Z,100982.44
2022-09-22T13:52:13.718Z,100972.00
2022-09-22T13:54:43.573Z,100982.78
2022-09-22T13:57:21.446Z,100982.19
2022-09-22T13:59:49.547Z,100981.56
2022-09-22T14:02:24.454Z,100977.72
2022-09-22T14:04:58.159Z,100973.75
2022-09-22T14:07:30.166Z,100968.16
2022-09-22T14:10:02.089Z,100969.13
2022-09-22T14:12:30.560Z,100946.81
2022-09-22T14:15:49.724Z,100928.78
2022-09-22T14:18:26.332Z,100960.56
2022-09-22T14:20:55.744Z,100944.28
2022-09-22T14:23:28.816Z,100941.09
2022-09-22T14:25:59.651Z,100932.03
2022-09-22T14:28:32.374Z,100928.94
2022-09-22T14:31:00.275Z,100922.03
2022-09-22T14:33:32.275Z,100921.78
2022-09-22T14:36:01.800Z,100921.59
2022-09-22T14:38:34.383Z,100892.22
2022-09-22T14:41:04.400Z,100905.44
2022-09-22T14:43:37.803Z,100926.25
2022-09-22T14:46:23.847Z,100919.75
2022-09-22T14:48:52.186Z,100889.50
2022-09-22T14:51:25.032Z,100911.69
2022-09-22T14:53:57.590Z,100914.69
2022-09-22T14:56:29.362Z,100905.75
2022-09-22T14:59:00.160Z,100892.09
2022-09-22T15:01:48.865Z,100888.38
2022-09-22T15:04:23.051Z,100891.84
2022-09-22T15:06:52.441Z,100890.72
2022-09-22T15:09:26.034Z,100881.03
2022-09-22T15:11:57.999Z,100858.28
2022-09-22T15:14:33.485Z,100869.41
2022-09-22T15:17:16.422Z,100878.13
2022-09-22T15:19:44.272Z,100877.28
2022-09-22T15:22:14.418Z,100876.03
2022-09-22T15:24:42.615Z,100884.00
2022-09-22T15:27:17.686Z,100881.28
2022-09-22T15:29:45.779Z,100878.03
2022-09-22T15:32:14.126Z,100877.63
2022-09-22T15:34:44.645Z,100870.28
2022-09-22T15:37:17.216Z,100871.88
2022-09-22T15:39:45.069Z,100894.06
2022-09-22T15:42:14.835Z,100894.53
2022-09-22T15:44:43.761Z,100877.75
2022-09-22T15:47:16.573Z,100890.59
2022-09-22T15:49:45.037Z,100897.53
2022-09-22T15:52:13.063Z,100904.00
2022-09-22T15:54:40.822Z,100887.50
2022-09-22T15:57:08.636Z,100893.28
2022-09-22T15:59:39.700Z,100894.94
2022-09-22T16:02:11.575Z,100885.91
2022-09-22T16:04:39.408Z,100884.28
2022-09-22T16:07:12.323Z,100881.13
2022-09-22T16:09:40.283Z,100874.19
2022-09-22T16:12:10.796Z,100880.53
2022-09-22T16:14:42.416Z,100884.78
2022-09-22T16:17:10.476Z,100874.53
2022-09-22T16:19:38.255Z,100894.50
2022-09-22T16:22:06.653Z,100889.88
2022-09-22T16:24:34.716Z,100879.50
2022-09-22T16:27:04.091Z,100881.16
2022-09-22T16:29:32.575Z,100878.97
2022-09-22T16:32:02.151Z,100881.03
2022-09-22T16:34:34.918Z,100877.28
2022-09-22T16:37:03.397Z,100882.75
2022-09-22T16:39:31.199Z,100893.66
2022-09-22T16:41:59.174Z,100883.06
2022-09-22T16:44:27.266Z,100878.38
2022-09-22T16:46:55.198Z,100878.31
2022-09-22T16:49:25.583Z,100879.03
2022-09-22T16:51:54.308Z,100879.19
2022-09-22T16:54:24.668Z,100883.38
2022-09-22T16:56:53.885Z,100887.06
2022-09-22T16:59:23.311Z,100879.69
2022-09-22T17:01:51.669Z,100883.16
2022-09-22T17:04:20.280Z,100890.53
2022-09-22T17:06:50.081Z,100883.28
2022-09-22T17:09:19.008Z,100885.31
2022-09-22T17:11:48.742Z,100887.56
2022-09-22T17:14:21.531Z,100885.28
2022-09-22T17:16:51.786Z,100888.44
2022-09-22T17:19:21.603Z,100898.97
2022-09-22T17:21:53.899Z,100897.28
2022-09-22T17:24:22.651Z,100894.00
2022-09-22T17:26:52.892Z,100899.91
2022-09-22T17:29:23.344Z,100889.16
2022-09-22T17:31:52.121Z,100903.97
2022-09-22T17:34:19.996Z,100891.22
2022-09-22T17:36:47.891Z,100897.38
2022-09-22T17:39:19.073Z,100907.03
2022-09-22T17:41:47.881Z,100901.66
2022-09-22T17:44:21.326Z,100900.22
2022-09-22T17:47:08.033Z,100897.56
2022-09-22T17:49:53.830Z,100902.50
2022-09-22T17:52:39.476Z,100908.38
2022-09-22T17:55:14.263Z,100890.50
2022-09-22T17:57:43.588Z,100911.63
2022-09-22T18:00:13.957Z,100908.91
2022-09-22T18:02:42.002Z,100908.88
2022-09-22T18:05:11.997Z,100910.81
2022-09-22T18:07:40.676Z,100903.53
2022-09-22T18:10:12.096Z,100895.00
2022-09-22T18:12:41.185Z,100908.69
2022-09-22T18:15:13.102Z,100910.84
2022-09-22T18:17:43.209Z,100908.31
2022-09-22T18:20:12.680Z,100919.84
2022-09-22T18:22:41.692Z,100904.56
2022-09-22T18:25:11.601Z,100908.59
2022-09-22T18:27:40.054Z,100914.72
2022-09-22T18:30:10.645Z,100917.28
2022-09-22T18:32:40.139Z,100910.38
2022-09-22T18:35:09.112Z,100913.69
2022-09-22T18:37:36.943Z,100912.88
2022-09-22T18:40:05.169Z,100913.56
2022-09-22T18:42:36.486Z,100916.91
2022-09-22T18:45:04.946Z,100926.31
2022-09-22T18:47:39.638Z,100924.19
2022-09-22T18:50:08.590Z,100930.03
2022-09-22T18:52:37.264Z,100935.91
2022-09-22T18:55:09.298Z,100924.81
2022-09-22T18:57:38.546Z,100934.44
2022-09-22T19:00:07.349Z,100936.31
2022-09-22T19:02:35.370Z,100930.47
2022-09-22T19:05:03.315Z,100943.41
2022-09-22T19:07:44.055Z,100939.19
2022-09-22T19:10:14.148Z,100945.00
2022-09-22T19:12:43.783Z,100949.16
2022-09-22T19:15:16.996Z,100923.63
2022-09-22T19:17:47.548Z,100946.00
2022-09-22T19:20:18.227Z,100936.56
2022-09-22T19:22:46.947Z,100946.97
2022-09-22T19:25:16.035Z,100942.56
2022-09-22T19:27:45.359Z,100939.19
2022-09-22T19:30:14.035Z,100930.59
2022-09-22T19:32:42.401Z,100942.25
2022-09-22T19:35:11.169Z,100924.56
2022-09-22T19:37:40.706Z,100936.66
2022-09-22T19:40:13.157Z,100949.34
2022-09-22T19:42:41.053Z,100939.06
2022-09-22T19:45:11.146Z,100943.47
2022-09-22T19:47:40.563Z,100934.28
2022-09-22T19:50:09.517Z,100939.84
2022-09-22T19:52:38.174Z,100936.03
2022-09-22T19:55:07.076Z,100940.09
2022-09-22T19:57:36.225Z,100940.50
2022-09-22T20:00:04.571Z,100941.72
2022-09-22T20:02:34.384Z,100935.94
2022-09-22T20:05:02.307Z,100932.44
2022-09-22T20:07:30.214Z,100934.28
2022-09-22T20:09:58.086Z,100935.66
2022-09-22T20:12:25.908Z,100937.44
2022-09-22T20:14:54.543Z,100940.06
2022-09-22T20:17:23.097Z,100935.66
2022-09-22T20:19:52.211Z,100933.34
2022-09-22T20:22:23.101Z,100924.25
2022-09-22T20:24:55.385Z,100932.59
2022-09-22T20:27:27.845Z,100923.34
2022-09-22T20:29:57.484Z,100927.06
2022-09-22T20:32:26.223Z,100920.50
2022-09-22T20:34:56.336Z,100923.03
2022-09-22T20:37:25.151Z,100926.75
2022-09-22T20:39:53.445Z,100924.19
2022-09-22T20:42:21.524Z,100924.66
2022-09-22T20:44:49.574Z,100911.47
2022-09-22T20:47:19.254Z,100921.28
2022-09-22T20:49:51.601Z,100920.22
2022-09-22T20:52:21.518Z,100911.16
2022-09-22T20:54:50.076Z,100904.91
2022-09-22T20:57:18.164Z,100912.31
2022-09-22T20:59:46.290Z,100905.56
2022-09-22T21:02:15.216Z,100909.63
2022-09-22T21:04:43.236Z,100905.16
2022-09-22T21:07:11.519Z,100914.13
2022-09-22T21:09:58.737Z,100898.16
2022-09-22T21:12:31.131Z,100888.88
2022-09-22T21:14:59.605Z,100898.03
2022-09-22T21:17:29.702Z,100883.06
2022-09-22T21:19:57.819Z,100903.38
2022-09-22T21:22:27.935Z,100897.69
2022-09-22T21:24:57.188Z,100901.44
2022-09-22T21:27:25.525Z,100891.25
2022-09-22T21:29:53.648Z,100886.63
2022-09-22T21:32:21.724Z,100897.63
2022-09-22T21:34:49.616Z,100898.00
2022-09-22T21:37:17.526Z,100882.28
2022-09-22T21:39:45.433Z,100878.09
2022-09-22T21:42:14.659Z,100889.75
2022-09-22T21:44:42.713Z,100889.09
2022-09-22T21:47:11.550Z,100881.47
2022-09-22T21:49:39.526Z,100884.38
2022-09-22T21:52:07.566Z,100879.81
2022-09-22T21:54:35.807Z,100882.53
2022-09-22T21:57:04.137Z,100883.25
2022-09-22T21:59:33.372Z,100880.84
2022-09-22T22:02:01.704Z,100878.34
2022-09-22T22:04:29.537Z,100870.41
2022-09-22T22:06:57.450Z,100874.88
2022-09-22T22:09:25.714Z,100875.53
2022-09-22T22:11:56.261Z,100859.31
2022-09-22T22:14:26.054Z,100868.16
2022-09-22T22:16:56.237Z,100871.59
2022-09-22T22:19:26.883Z,100868.81
2022-09-22T22:21:55.490Z,100871.16
2022-09-22T22:24:39.446Z,100869.69
2022-09-22T22:27:09.682Z,100867.63
2022-09-22T22:29:38.887Z,100870.81
2022-09-22T22:32:10.421Z,100857.28
2022-09-22T22:34:39.012Z,100864.47
2022-09-22T22:37:09.786Z,100867.00
2022-09-22T22:39:37.740Z,100861.09
2022-09-22T22:42:06.597Z,100865.75
2022-09-22T22:44:35.245Z,100870.91
2022-09-22T22:47:03.203Z,100865.38
2022-09-22T22:49:32.494Z,100871.53
2022-09-22T22:52:00.375Z,100865.19
2022-09-22T22:54:28.384Z,100866.13
2022-09-22T22:56:56.736Z,100864.66
2022-09-22T22:59:24.494Z,100862.22
2022-09-22T23:01:52.423Z,100853.72
2022-09-22T23:04:22.548Z,100854.88
2022-09-22T23:06:51.812Z,100857.78
2022-09-22T23:09:19.595Z,100862.03
2022-09-22T23:11:47.576Z,100857.03
2022-09-22T23:14:16.198Z,100851.81
2022-09-22T23:16:46.352Z,100857.03
2022-09-22T23:19:16.147Z,100856.06
2022-09-22T23:21:44.872Z,100849.28
2022-09-22T23:24:16.742Z,100840.63
2022-09-22T23:26:45.513Z,100851.81
2022-09-22T23:29:13.839Z,100846.00
2022-09-22T23:31:41.689Z,100847.50
2022-09-22T23:34:09.583Z,100849.16
2022-09-22T23:36:37.454Z,100831.94
2022-09-22T23:39:05.979Z,100841.28
2022-09-22T23:41:37.407Z,100845.91
2022-09-22T23:44:06.453Z,100838.09
2022-09-22T23:46:34.264Z,100842.00
2022-09-22T23:49:02.277Z,100833.13
2022-09-22T23:51:30.252Z,100845.63
2022-09-22T23:53:58.820Z,100842.16
2022-09-22T23:56:27.312Z,100841.50
2022-09-22T23:58:56.551Z,100840.88
